Time;durP1;ratioP1;P1;durP2;ratioP2;P2;SDS_P1;SDS_P2;PMS_P1;PMS_P2;Temp;Humidity;BMP_temperature;BMP_pressure;BME280_temperature;BME280_humidity;BME280_pressure;Samples;Min_cycle;Max_cycle;Signal;HPM_P1;HPM_P2
2022/09/17 00:00:37;;;;;;;4.53;2.70;;;;;;;18.57;55.79;97701.88;5157917;27;20034;-63
2022/09/17 00:03:04;;;;;;;11.68;2.28;;;;;;;18.55;55.74;97701.25;5157445;27;20117;-67
2022/09/17 00:05:30;;;;;;;3.85;2.53;;;;;;;18.53;55.83;97699.84;5158020;27;20402;-65
2022/09/17 00:07:55;;;;;;;5.88;2.42;;;;;;;18.52;55.62;97709.72;5157861;27;20117;-67
2022/09/17 00:10:22;;;;;;;4.55;2.30;;;;;;;18.48;55.63;97707.69;5157651;27;20026;-65
2022/09/17 00:12:48;;;;;;;3.67;2.33;;;;;;;18.47;55.71;97708.72;5157155;27;20113;-66
2022/09/17 00:15:14;;;;;;;2.60;1.95;;;;;;;18.44;55.79;97708.13;5157823;27;20034;-66
2022/09/17 00:17:40;;;;;;;5.10;2.30;;;;;;;18.42;55.75;97710.19;5157327;27;20037;-67
2022/09/17 00:20:08;;;;;;;3.08;2.10;;;;;;;18.41;55.70;97715.78;5157435;27;20027;-64
2022/09/17 00:22:34;;;;;;;3.60;2.35;;;;;;;18.38;55.71;97710.84;5157281;27;20042;-66
2022/09/17 00:25:00;;;;;;;3.05;2.38;;;;;;;18.36;55.59;97712.91;5156054;27;20031;-65
2022/09/17 00:27:25;;;;;;;2.88;2.10;;;;;;;18.34;55.50;97712.31;5157539;27;20039;-65
2022/09/17 00:29:51;;;;;;;4.90;2.33;;;;;;;18.31;55.44;97708.22;5157637;27;20465;-67
2022/09/17 00:32:16;;;;;;;4.88;3.05;;;;;;;18.30;55.37;97720.78;5157501;27;20057;-65
2022/09/17 00:34:42;;;;;;;2.95;2.13;;;;;;;18.28;55.45;97714.84;5156999;27;20056;-65
2022/09/17 00:37:07;;;;;;;3.15;2.28;;;;;;;18.27;55.51;97728.41;5157702;27;20146;-67
2022/09/17 00:39:33;;;;;;;5.63;2.08;;;;;;;18.25;55.32;97725.13;5156446;27;20046;-69
2022/09/17 00:41:58;;;;;;;3.40;2.50;;;;;;;18.24;55.40;97724.31;5157661;27;20039;-68
2022/09/17 00:44:48;;;;;;;3.30;2.10;;;;;;;18.23;55.15;97733.38;5155698;27;20052;-66
2022/09/17 00:47:31;;;;;;;3.53;2.60;;;;;;;18.22;55.22;97737.09;5156873;27;20038;-66
2022/09/17 00:50:06;;;;;;;3.60;2.53;;;;;;;18.19;55.32;97732.16;5155831;27;20450;-64
2022/09/17 00:52:36;;;;;;;3.50;2.20;;;;;;;18.18;55.31;97738.56;5156857;27;20054;-65
2022/09/17 00:55:11;;;;;;;2.97;1.88;;;;;;;18.17;55.32;97736.09;5155080;27;20042;-64
2022/09/17 00:57:38;;;;;;;4.47;2.22;;;;;;;18.14;55.12;97740.84;5156879;27;20038;-64
2022/09/17 01:00:07;;;;;;;2.88;2.25;;;;;;;18.13;55.19;97739.19;5156665;27;20378;-65
2022/09/17 01:02:33;;;;;;;2.92;2.28;;;;;;;18.12;55.27;97742.91;5156819;27;20031;-65
2022/09/17 01:04:58;;;;;;;2.47;1.90;;;;;;;18.11;55.37;97740.47;5156261;27;20038;-66
2022/09/17 01:07:42;;;;;;;2.67;2.10;;;;;;;18.11;55.22;97748.50;5156517;27;20041;-64
2022/09/17 01:10:18;;;;;;;2.60;1.90;;;;;;;18.09;55.10;97742.53;5141806;27;20039;-68
2022/09/17 01:12:56;;;;;;;3.00;1.95;;;;;;;18.07;54.91;97740.06;5156096;27;20496;-67
2022/09/17 01:15:40;;;;;;;3.22;2.03;;;;;;;18.06;55.11;97745.63;5156304;27;20041;-67
2022/09/17 01:18:24;;;;;;;2.72;2.25;;;;;;;18.03;54.87;97738.00;5156527;27;20057;-66
2022/09/17 01:21:20;;;;;;;2.72;1.90;;;;;;;18.02;54.92;97742.56;5156393;27;20034;-65
2022/09/17 01:24:03;;;;;;;3.33;2.58;;;;;;;18.01;54.92;97745.47;5155018;27;20038;-67
2022/09/17 01:27:18;;;;;;;3.15;1.95;;;;;;;17.99;54.90;97743.81;5156218;27;20405;-66
2022/09/17 01:29:43;;;;;;;3.05;1.95;;;;;;;17.96;54.93;97744.19;5156461;27;20125;-65
2022/09/17 01:32:21;;;;;;;3.20;1.88;;;;;;;17.97;54.83;97742.34;5156411;27;20120;-63
2022/09/17 01:35:04;;;;;;;2.20;1.83;;;;;;;17.96;54.83;97740.69;5154784;27;20037;-67
2022/09/17 01:37:37;;;;;;;2.42;1.80;;;;;;;17.94;54.87;97738.25;5154768;27;20030;-68
2022/09/17 01:40:55;;;;;;;2.58;1.40;;;;;;;17.95;54.83;97749.75;5156508;27;20030;-66
2022/09/17 01:43:25;;;;;;;5.43;1.98;;;;;;;17.93;54.70;97746.50;5084803;27;20509;-67
2022/09/17 01:45:57;;;;;;;2.37;1.57;;;;;;;17.92;54.76;97742.97;5156132;27;20023;-65
2022/09/17 01:48:29;;;;;;;2.97;1.83;;;;;;;17.91;54.76;97744.00;5155434;27;20264;-67
2022/09/17 01:51:05;;;;;;;2.55;1.75;;;;;;;17.90;54.73;97750.41;5155668;27;20042;-65
2022/09/17 01:53:40;;;;;;;2.70;1.73;;;;;;;17.89;54.63;97748.75;5155513;27;20053;-68
2022/09/17 01:56:09;;;;;;;3.13;1.67;;;;;;;17.87;54.66;97747.31;5155433;27;20401;-66
2022/09/17 01:58:44;;;;;;;2.28;1.52;;;;;;;17.85;54.58;97752.91;5155227;27;20114;-65
2022/09/17 02:01:15;;;;;;;3.65;1.50;;;;;;;17.84;54.57;97748.59;5155471;27;20025;-63
2022/09/17 02:03:45;;;;;;;1.60;1.13;;;;;;;17.81;54.46;97757.03;5154750;27;20036;-66
2022/09/17 02:06:16;;;;;;;3.42;1.70;;;;;;;17.80;54.69;97761.53;5155336;27;20030;-69
2022/09/17 02:09:06;;;;;;;5.15;1.65;;;;;;;17.77;54.45;97767.34;5154681;27;20560;-64
2022/09/17 02:11:36;;;;;;;4.93;1.80;;;;;;;17.76;54.45;97759.50;5155598;27;20034;-64
2022/09/17 02:14:29;;;;;;;3.72;1.73;;;;;;;17.75;54.54;97757.84;5154485;27;20030;-66
2022/09/17 02:17:09;;;;;;;3.15;1.70;;;;;;;17.73;54.68;97759.91;5155551;27;20489;-67
2022/09/17 02:19:38;;;;;;;4.18;1.50;;;;;;;17.72;54.55;97774.34;5154627;27;20026;-68
2022/09/17 02:22:47;;;;;;;2.30;1.60;;;;;;;17.70;54.85;97769.19;5155670;27;20101;-65
2022/09/17 02:25:30;;;;;;;5.00;1.60;;;;;;;17.68;54.40;97768.56;5154245;27;20065;-67
2022/09/17 02:28:12;;;;;;;3.63;1.70;;;;;;;17.66;54.42;97770.63;5155291;27;20035;-64
2022/09/17 02:30:38;;;;;;;2.53;1.40;;;;;;;17.65;54.58;97769.81;5155221;27;20468;-66
2022/09/17 02:33:06;;;;;;;1.90;1.40;;;;;;;17.64;54.60;97770.84;5154972;27;20026;-67
2022/09/17 02:35:32;;;;;;;1.88;1.42;;;;;;;17.65;54.44;97766.31;5154535;27;20396;-68
2022/09/17 02:37:59;;;;;;;1.80;1.20;;;;;;;17.63;54.26;97766.53;5149244;27;20113;-68
2022/09/17 02:40:29;;;;;;;4.15;1.35;;;;;;;17.62;54.40;97774.78;5134336;27;20034;-66
2022/09/17 02:43:10;;;;;;;2.47;1.67;;;;;;;17.59;54.36;97767.97;5134197;27;20035;-67
2022/09/17 02:46:09;;;;;;;3.22;1.23;;;;;;;17.57;54.37;97780.75;5148927;27;20027;-65
2022/09/17 02:48:53;;;;;;;2.70;1.40;;;;;;;17.57;54.53;97785.28;5154718;27;20038;-67
2022/09/17 02:51:35;;;;;;;2.40;1.50;;;;;;;17.56;54.44;97784.47;5154871;27;20106;-67
2022/09/17 02:54:37;;;;;;;1.92;1.08;;;;;;;17.56;54.14;97781.78;5154270;27;20501;-65
2022/09/17 02:57:19;;;;;;;1.90;1.23;;;;;;;17.52;54.27;97785.91;5120948;27;20050;-64
2022/09/17 03:00:11;;;;;;;2.35;1.20;;;;;;;17.51;54.27;97781.59;5154482;27;20031;-67
2022/09/17 03:02:47;;;;;;;1.35;1.00;;;;;;;17.50;54.32;97782.63;5154271;27;20026;-67
2022/09/17 03:05:15;;;;;;;3.28;1.48;;;;;;;17.49;54.12;97786.31;5154994;27;20022;-65
2022/09/17 03:07:41;;;;;;;4.60;1.85;;;;;;;17.49;54.21;97789.00;5153984;27;20483;-67
2022/09/17 03:10:07;;;;;;;1.77;1.35;;;;;;;17.47;54.28;97785.72;5135287;27;20074;-66
2022/09/17 03:12:33;;;;;;;2.35;1.48;;;;;;;17.47;54.21;97786.53;5153885;27;20527;-66
2022/09/17 03:14:59;;;;;;;3.90;1.10;;;;;;;17.47;54.18;97791.06;5154738;27;20023;-68
2022/09/17 03:17:25;;;;;;;1.77;1.10;;;;;;;17.46;54.28;97790.25;5153760;27;20038;-68
2022/09/17 03:19:50;;;;;;;2.65;1.30;;;;;;;17.45;54.19;97804.63;5153793;27;20670;-66
2022/09/17 03:22:16;;;;;;;1.77;1.10;;;;;;;17.45;54.16;97801.97;5153768;27;20034;-68
2022/09/17 03:24:41;;;;;;;2.65;1.30;;;;;;;17.44;54.27;97804.84;5154053;27;20083;-67
2022/09/17 03:27:07;;;;;;;1.23;1.08;;;;;;;17.43;54.18;97803.19;5153887;27;20035;-66
2022/09/17 03:29:32;;;;;;;2.10;1.40;;;;;;;17.45;54.09;97818.00;5154369;27;20066;-65
2022/09/17 03:31:58;;;;;;;1.58;1.05;;;;;;;17.47;54.14;97815.13;5154365;27;20038;-68
2022/09/17 03:34:23;;;;;;;3.05;1.33;;;;;;;17.47;53.97;97815.13;5153305;27;20033;-66
2022/09/17 03:36:49;;;;;;;2.10;1.10;;;;;;;17.47;53.89;97817.78;5154327;27;20087;-70
2022/09/17 03:39:14;;;;;;;2.50;1.75;;;;;;;17.46;54.07;97811.63;5138206;27;20461;-67
2022/09/17 03:41:40;;;;;;;3.13;1.35;;;;;;;17.46;53.84;97805.44;5133548;28;20027;-64
2022/09/17 03:44:05;;;;;;;4.63;1.23;;;;;;;17.46;53.91;97808.13;5138532;27;20027;-66
2022/09/17 03:46:31;;;;;;;1.75;1.15;;;;;;;17.46;53.94;97811.63;5153954;27;20046;-67
2022/09/17 03:48:56;;;;;;;3.33;1.88;;;;;;;17.46;53.88;97816.16;5152766;27;20038;-67
2022/09/17 03:51:22;;;;;;;2.00;1.15;;;;;;;17.46;53.81;97821.50;5153511;27;20038;-66
2022/09/17 03:53:48;;;;;;;2.60;1.50;;;;;;;17.45;53.69;97822.53;5153701;27;20093;-64
2022/09/17 03:56:13;;;;;;;1.73;1.23;;;;;;;17.44;53.84;97818.19;5154115;27;20118;-65
2022/09/17 03:58:39;;;;;;;2.38;1.48;;;;;;;17.43;53.83;97820.06;5153767;27;20034;-64
2022/09/17 04:01:04;;;;;;;3.25;1.38;;;;;;;17.42;53.89;97818.41;5154477;27;20037;-68
2022/09/17 04:03:31;;;;;;;2.80;1.45;;;;;;;17.43;53.63;97822.75;5154122;27;20401;-67
2022/09/17 04:05:56;;;;;;;2.80;1.30;;;;;;;17.43;53.77;97824.56;5153716;27;20027;-64
2022/09/17 04:08:22;;;;;;;2.13;1.17;;;;;;;17.42;53.53;97826.44;5153740;27;20035;-63
2022/09/17 04:10:47;;;;;;;2.03;1.33;;;;;;;17.41;53.64;97838.16;5153861;27;20492;-67
2022/09/17 04:13:14;;;;;;;3.30;1.35;;;;;;;17.42;53.53;97837.13;5153955;27;20031;-66
2022/09/17 04:15:40;;;;;;;3.42;1.77;;;;;;;17.44;53.54;97831.56;5153687;27;20023;-66
2022/09/17 04:18:06;;;;;;;1.77;1.10;;;;;;;17.43;53.55;97832.59;5153250;27;20034;-66
2022/09/17 04:20:32;;;;;;;1.73;1.48;;;;;;;17.44;53.52;97839.59;5154048;27;20035;-65
2022/09/17 04:22:57;;;;;;;2.35;1.20;;;;;;;17.45;53.41;97844.75;5153902;27;20042;-67
2022/09/17 04:25:23;;;;;;;2.13;1.35;;;;;;;17.46;53.42;97845.56;5153631;27;20034;-67
2022/09/17 04:27:48;;;;;;;1.13;0.98;;;;;;;17.48;53.33;97846.16;5153413;27;20488;-65
2022/09/17 04:30:14;;;;;;;2.40;1.13;;;;;;;17.51;53.23;97835.88;5154209;27;20030;-66
2022/09/17 04:32:40;;;;;;;2.85;1.33;;;;;;;17.52;53.16;97842.06;5157694;27;20084;-64
2022/09/17 04:35:06;;;;;;;3.10;1.30;;;;;;;17.54;53.13;97845.34;5157485;27;20061;-66
2022/09/17 04:37:31;;;;;;;2.97;1.35;;;;;;;17.57;53.00;97844.09;5157254;27;20442;-68
2022/09/17 04:39:56;;;;;;;3.20;1.33;;;;;;;17.57;52.69;97849.47;5156702;27;20030;-67
2022/09/17 04:42:22;;;;;;;3.00;1.70;;;;;;;17.57;52.81;97844.09;5157323;27;20046;-68
2022/09/17 04:44:48;;;;;;;1.45;1.17;;;;;;;17.57;52.69;97844.94;5156985;27;20038;-66
2022/09/17 04:47:13;;;;;;;3.63;1.40;;;;;;;17.59;52.79;97847.41;5156548;27;20036;-67
2022/09/17 04:49:39;;;;;;;2.15;1.40;;;;;;;17.58;52.71;97846.56;5156351;27;20042;-65
2022/09/17 04:52:04;;;;;;;1.75;1.05;;;;;;;17.61;52.74;97856.03;5156934;27;20125;-65
2022/09/17 04:54:30;;;;;;;2.33;1.50;;;;;;;17.63;52.75;97857.47;5157014;27;20094;-64
2022/09/17 04:56:55;;;;;;;3.10;1.42;;;;;;;17.63;52.70;97859.34;5156918;27;20085;-65
2022/09/17 04:59:21;;;;;;;4.90;2.13;;;;;;;17.65;52.57;97863.44;5155864;27;20038;-69
2022/09/17 05:01:46;;;;;;;2.15;1.33;;;;;;;17.66;52.57;97865.09;5156971;27;20046;-68
2022/09/17 05:04:12;;;;;;;2.50;1.45;;;;;;;17.67;52.51;97864.06;5156481;27;20374;-67
2022/09/17 05:06:37;;;;;;;2.55;1.30;;;;;;;17.69;52.19;97867.34;5157169;27;20090;-65
2022/09/17 05:09:02;;;;;;;4.95;1.90;;;;;;;17.74;52.08;97869.41;5156254;27;20042;-69
2022/09/17 05:11:28;;;;;;;2.60;1.05;;;;;;;17.79;51.95;97872.25;5156833;27;20034;-66
2022/09/17 05:13:54;;;;;;;2.90;1.70;;;;;;;17.87;51.70;97868.53;5155480;27;20034;-67
2022/09/17 05:16:19;;;;;;;3.58;1.50;;;;;;;17.94;51.36;97863.19;5156030;27;20409;-68
2022/09/17 05:18:45;;;;;;;1.92;1.38;;;;;;;18.01;51.28;97864.00;5156303;27;20037;-68
2022/09/17 05:21:10;;;;;;;3.22;1.38;;;;;;;18.04;51.33;97874.31;5156497;27;20042;-68
2022/09/17 05:23:36;;;;;;;2.03;1.10;;;;;;;18.09;51.28;97873.66;5155667;27;20467;-68
2022/09/17 05:26:01;;;;;;;2.53;1.55;;;;;;;18.15;51.23;97875.50;5138025;27;20035;-67
2022/09/17 05:28:27;;;;;;;2.17;1.30;;;;;;;18.20;51.15;97882.91;5156049;27;20075;-67
2022/09/17 05:30:53;;;;;;;4.90;1.10;;;;;;;18.22;51.27;97887.00;5156472;27;20062;-67
2022/09/17 05:33:19;;;;;;;2.20;1.70;;;;;;;18.25;51.23;97891.94;5155184;27;20050;-66
2022/09/17 05:35:44;;;;;;;2.97;1.10;;;;;;;18.27;51.44;97887.22;5155752;27;20117;-68
2022/09/17 05:38:10;;;;;;;2.67;1.38;;;;;;;18.29;51.34;97887.81;5155686;27;20065;-69
2022/09/17 05:40:37;;;;;;;1.52;1.15;;;;;;;18.30;51.43;97892.16;5155939;27;20039;-65
2022/09/17 05:43:04;;;;;;;2.13;1.17;;;;;;;18.33;51.66;97898.09;5155468;27;20118;-68
2022/09/17 05:45:32;;;;;;;4.05;1.40;;;;;;;18.34;51.67;97900.56;5156044;27;20031;-65
2022/09/17 05:48:00;;;;;;;2.85;1.40;;;;;;;18.33;51.76;97890.88;5155763;27;20026;-68
2022/09/17 05:50:27;;;;;;;2.03;1.25;;;;;;;18.32;51.62;97902.63;5156353;27;20036;-68
2022/09/17 05:52:53;;;;;;;2.85;1.30;;;;;;;18.33;51.89;97906.13;5154876;27;20061;-64
2022/09/17 05:55:21;;;;;;;1.63;1.23;;;;;;;18.33;51.86;97908.78;5153948;27;20065;-67
2022/09/17 05:57:50;;;;;;;3.20;2.05;;;;;;;18.32;52.00;97909.81;5155705;27;20034;-66
2022/09/17 06:00:16;;;;;;;2.85;1.25;;;;;;;18.32;52.00;97907.16;5155540;27;20032;-67
2022/09/17 06:02:42;;;;;;;2.40;1.38;;;;;;;18.31;52.13;97906.34;5155678;27;20114;-68
2022/09/17 06:05:08;;;;;;;2.05;1.13;;;;;;;18.33;52.27;97914.97;5155089;27;20054;-66
2022/09/17 06:07:37;;;;;;;5.38;1.30;;;;;;;18.33;52.30;97917.66;5154704;27;20049;-67
2022/09/17 06:10:05;;;;;;;2.10;1.20;;;;;;;18.36;52.38;97914.56;5154599;27;20562;-66
2022/09/17 06:12:30;;;;;;;3.05;1.35;;;;;;;18.36;52.35;97914.56;5155285;27;20041;-65
2022/09/17 06:14:56;;;;;;;1.50;0.95;;;;;;;18.38;52.28;97911.66;5155435;27;20030;-67
2022/09/17 06:17:22;;;;;;;2.70;1.60;;;;;;;18.39;52.45;97916.00;5154690;27;20505;-67
2022/09/17 06:19:47;;;;;;;2.95;1.10;;;;;;;18.41;52.16;97924.63;5155477;27;20029;-67
2022/09/17 06:22:13;;;;;;;3.75;1.70;;;;;;;18.42;52.00;97921.75;5155356;27;20063;-64
2022/09/17 06:24:38;;;;;;;1.90;1.30;;;;;;;18.47;52.25;97925.66;5155354;27;20034;-68
2022/09/17 06:27:04;;;;;;;2.40;1.02;;;;;;;18.48;51.89;97922.75;5154440;27;20083;-66
2022/09/17 06:29:29;;;;;;;5.85;1.10;;;;;;;18.50;51.86;97920.69;5154264;27;20038;-66
2022/09/17 06:31:55;;;;;;;3.58;1.33;;;;;;;18.53;52.02;97922.13;5154862;27;20061;-66
2022/09/17 06:34:21;;;;;;;4.70;1.30;;;;;;;18.54;51.71;97921.06;5154859;27;20095;-67
2022/09/17 06:36:48;;;;;;;3.22;1.13;;;;;;;18.56;51.50;97917.16;5154646;27;20523;-67
2022/09/17 06:39:13;;;;;;;2.95;1.40;;;;;;;18.58;51.50;97919.63;5153383;27;20045;-67
2022/09/17 06:41:42;;;;;;;2.58;1.05;;;;;;;18.61;51.56;97917.34;5154829;27;20028;-65
2022/09/17 06:44:07;;;;;;;2.42;1.20;;;;;;;18.63;51.38;97919.81;5154591;27;20516;-66
2022/09/17 06:46:33;;;;;;;2.92;1.88;;;;;;;18.64;51.26;97915.25;5154692;27;20030;-66
2022/09/17 06:48:58;;;;;;;5.85;1.67;;;;;;;18.66;51.17;97918.56;5154103;27;20034;-69
2022/09/17 06:51:24;;;;;;;1.88;0.98;;;;;;;18.68;51.02;97919.97;5154858;27;20031;-69
2022/09/17 06:53:49;;;;;;;2.25;0.90;;;;;;;18.72;51.13;97928.44;5153655;27;20418;-68
2022/09/17 06:56:15;;;;;;;2.92;1.15;;;;;;;18.76;50.88;97921.59;5154777;27;20045;-68
2022/09/17 06:58:41;;;;;;;1.90;1.17;;;;;;;18.80;50.66;97922.81;5154182;27;20061;-66
2022/09/17 07:01:08;;;;;;;4.88;1.30;;;;;;;18.83;50.63;97930.44;5154717;27;20033;-66
2022/09/17 07:03:35;;;;;;;3.42;1.00;;;;;;;18.87;50.45;97934.34;5154458;27;20082;-66
2022/09/17 07:06:00;;;;;;;3.50;1.40;;;;;;;18.89;50.30;97939.47;5154241;27;20027;-64
2022/09/17 07:08:26;;;;;;;3.03;1.23;;;;;;;18.90;50.27;97931.22;5153778;27;20087;-66
2022/09/17 07:10:56;;;;;;;1.67;1.10;;;;;;;18.91;50.32;97932.84;5154415;27;20153;-67
2022/09/17 07:13:22;;;;;;;4.38;1.20;;;;;;;18.93;50.04;97935.34;5154193;27;20037;-65
2022/09/17 07:15:59;;;;;;;3.50;1.60;;;;;;;18.96;49.85;97939.47;5154140;27;20030;-67
2022/09/17 07:18:25;;;;;;;2.42;1.17;;;;;;;18.97;50.05;97949.97;5153251;27;20037;-68
2022/09/17 07:20:55;;;;;;;2.65;1.27;;;;;;;19.01;49.91;97953.06;5153833;27;20035;-67
2022/09/17 07:23:25;;;;;;;2.28;1.10;;;;;;;19.05;49.66;97948.88;5153487;27;20105;-65
2022/09/17 07:25:53;;;;;;;4.05;1.00;;;;;;;19.04;49.83;97958.00;5153680;27;20046;-69
2022/09/17 07:28:19;;;;;;;2.33;1.10;;;;;;;19.05;49.61;97954.25;5154250;27;20066;-68
2022/09/17 07:30:44;;;;;;;3.53;2.15;;;;;;;19.07;49.52;97954.84;5154114;27;20061;-68
2022/09/17 07:33:10;;;;;;;2.90;1.27;;;;;;;19.08;49.42;97959.19;5154249;27;20065;-65
2022/09/17 07:35:35;;;;;;;4.15;1.30;;;;;;;19.11;49.24;97964.13;5153369;27;20034;-68
2022/09/17 07:38:01;;;;;;;2.00;1.00;;;;;;;19.11;49.24;97961.44;5152618;27;20038;-68
2022/09/17 07:40:26;;;;;;;3.13;1.50;;;;;;;19.13;49.15;97964.75;5152931;27;20125;-67
2022/09/17 07:42:53;;;;;;;2.95;1.60;;;;;;;19.14;48.95;97961.03;5153252;27;20046;-68
2022/09/17 07:45:18;;;;;;;1.75;1.00;;;;;;;19.16;48.85;97975.03;5154134;27;20159;-66
2022/09/17 07:47:44;;;;;;;1.45;1.00;;;;;;;19.18;48.77;97966.75;5153602;27;20520;-69
2022/09/17 07:50:10;;;;;;;5.93;1.20;;;;;;;19.19;48.61;97966.53;5152945;27;20506;-64
2022/09/17 07:52:35;;;;;;;1.60;1.05;;;;;;;19.20;48.78;97970.06;5153179;27;20051;-66
2022/09/17 07:55:01;;;;;;;3.33;1.40;;;;;;;19.21;48.86;97974.38;5151121;27;20068;-66
2022/09/17 07:57:26;;;;;;;3.03;1.45;;;;;;;19.22;48.73;97968.00;5153322;27;20027;-66
2022/09/17 07:59:51;;;;;;;3.28;1.05;;;;;;;19.25;48.58;97972.09;5154020;27;20062;-65
2022/09/17 08:02:17;;;;;;;1.92;1.00;;;;;;;19.24;48.57;97967.75;5153926;27;20031;-67
2022/09/17 08:04:42;;;;;;;2.75;1.48;;;;;;;19.23;48.58;97974.16;5155868;27;20027;-64
2022/09/17 08:07:14;;;;;;;3.13;1.08;;;;;;;19.25;48.60;97977.44;5157643;27;20037;-69
2022/09/17 08:09:39;;;;;;;2.60;1.20;;;;;;;19.25;48.40;97974.78;5157241;27;20034;-65
2022/09/17 08:12:05;;;;;;;2.25;1.02;;;;;;;19.26;48.54;97979.09;5157879;27;20027;-66
2022/09/17 08:14:31;;;;;;;6.03;1.15;;;;;;;19.25;48.55;97964.88;5157518;27;20027;-63
2022/09/17 08:16:56;;;;;;;2.90;1.35;;;;;;;19.23;48.56;97958.06;5138737;27;20473;-67
2022/09/17 08:19:22;;;;;;;1.90;0.95;;;;;;;19.23;48.42;97975.00;5156582;27;20089;-65
2022/09/17 08:21:47;;;;;;;5.95;1.08;;;;;;;19.18;48.43;97964.09;5157677;27;20045;-65
2022/09/17 08:24:12;;;;;;;3.65;1.48;;;;;;;19.17;48.63;97970.47;5157257;27;20053;-68
2022/09/17 08:26:39;;;;;;;3.67;1.30;;;;;;;19.15;48.49;97961.81;5156789;27;20042;-66
2022/09/17 08:29:06;;;;;;;4.93;1.88;;;;;;;19.14;48.48;97963.69;5156792;27;20126;-68
2022/09/17 08:31:32;;;;;;;2.20;1.20;;;;;;;19.13;48.68;97962.06;5157457;27;20382;-64
2022/09/17 08:33:58;;;;;;;4.07;1.67;;;;;;;19.12;48.48;97959.56;5156817;27;20038;-66
2022/09/17 08:36:25;;;;;;;5.25;1.60;;;;;;;19.12;48.29;97959.56;5157297;27;20442;-67
2022/09/17 08:38:54;;;;;;;4.03;1.50;;;;;;;19.12;48.68;97960.41;5156944;27;20035;-67
2022/09/17 08:41:28;;;;;;;4.47;1.52;;;;;;;19.09;48.26;97958.16;5157242;27;20046;-64
2022/09/17 08:44:00;;;;;;;5.10;1.65;;;;;;;19.10;48.49;97961.69;5155034;27;20111;-66
2022/09/17 08:46:26;;;;;;;3.03;1.30;;;;;;;19.09;48.47;97966.19;5156668;27;20042;-68
2022/09/17 08:49:14;;;;;;;2.72;1.08;;;;;;;19.10;48.44;97967.03;5156423;27;20035;-67
2022/09/17 08:52:02;;;;;;;5.13;1.58;;;;;;;19.09;48.48;97974.25;5157044;27;20034;-68
2022/09/17 08:54:38;;;;;;;4.03;1.50;;;;;;;19.06;48.42;97978.19;5155977;27;20449;-66
2022/09/17 08:57:30;;;;;;;3.50;1.35;;;;;;;19.06;48.12;97980.03;5156309;27;20031;-68
2022/09/17 09:00:17;;;;;;;2.58;1.40;;;;;;;19.04;48.23;97977.56;5153068;27;20091;-67
2022/09/17 09:02:46;;;;;;;2.13;1.05;;;;;;;19.04;48.25;97974.88;5156377;27;20031;-67
2022/09/17 09:05:20;;;;;;;4.00;1.45;;;;;;;19.04;48.10;97977.56;5156194;27;20457;-65
2022/09/17 09:07:51;;;;;;;3.35;1.50;;;;;;;19.07;47.69;97981.66;5156200;27;20034;-66
2022/09/17 09:10:31;;;;;;;2.40;1.00;;;;;;;19.06;47.38;97980.03;5156806;27;20370;-65
2022/09/17 09:12:59;;;;;;;3.20;1.40;;;;;;;19.05;47.62;97986.41;5156742;27;20041;-68
2022/09/17 09:15:37;;;;;;;2.10;1.30;;;;;;;19.09;47.67;97997.56;5154878;27;20034;-69
2022/09/17 09:18:18;;;;;;;5.00;1.20;;;;;;;19.10;46.99;97983.94;5156832;27;20501;-65
2022/09/17 09:21:12;;;;;;;2.88;0.90;;;;;;;19.11;47.16;97982.09;5156675;27;20087;-67
2022/09/17 09:24:01;;;;;;;3.58;0.93;;;;;;;19.11;47.42;97985.56;5104468;27;20130;-67
2022/09/17 09:27:11;;;;;;;3.38;0.90;;;;;;;19.12;47.06;97983.69;5156538;27;20392;-66
2022/09/17 09:29:36;;;;;;;1.80;0.80;;;;;;;19.11;47.20;97993.63;5135376;27;20035;-67
2022/09/17 09:32:09;;;;;;;2.78;1.02;;;;;;;19.14;47.21;97990.50;5156193;27;20504;-65
2022/09/17 09:34:36;;;;;;;3.83;1.55;;;;;;;19.15;47.22;97997.53;5155690;27;20071;-67
2022/09/17 09:37:28;;;;;;;7.15;1.85;;;;;;;19.18;47.36;97991.75;5156313;27;20026;-68
2022/09/17 09:39:59;;;;;;;11.98;2.80;;;;;;;19.18;47.04;97991.75;5146701;27;20413;-71
2022/09/17 09:42:36;;;;;;;8.55;2.30;;;;;;;19.19;47.29;97990.66;5156188;27;20053;-65
2022/09/17 09:45:12;;;;;;;5.28;2.00;;;;;;;19.22;47.38;97992.13;5155744;27;20034;-67
2022/09/17 09:48:02;;;;;;;11.65;2.50;;;;;;;19.24;47.32;98002.63;5155046;27;20027;-69
2022/09/17 09:51:11;;;;;;;10.27;2.28;;;;;;;19.24;47.59;98002.63;5155793;27;20026;-66
2022/09/17 09:54:00;;;;;;;6.32;2.22;;;;;;;19.25;47.63;98013.16;5154841;27;20066;-65
2022/09/17 09:56:52;;;;;;;6.22;1.90;;;;;;;19.28;47.56;98001.97;5154847;27;20095;-68
2022/09/17 09:59:18;;;;;;;6.30;1.73;;;;;;;19.28;47.29;98018.06;5154585;27;20039;-66
2022/09/17 10:01:43;;;;;;;5.20;2.15;;;;;;;19.30;47.49;98001.78;5155850;27;20049;-68
2022/09/17 10:04:23;;;;;;;7.95;2.35;;;;;;;19.33;47.10;98004.03;5155073;27;20556;-66
2022/09/17 10:07:04;;;;;;;6.45;3.00;;;;;;;19.33;47.00;97998.66;5155214;27;20034;-67
2022/09/17 10:09:31;;;;;;;4.85;2.20;;;;;;;19.34;47.09;98011.00;5155372;27;20079;-66
2022/09/17 10:12:07;;;;;;;7.15;2.22;;;;;;;19.36;46.98;98011.63;5155215;27;20039;-69
2022/09/17 10:14:39;;;;;;;4.57;1.40;;;;;;;19.36;47.03;98007.09;5154443;27;20035;-67
2022/09/17 10:17:24;;;;;;;4.93;1.65;;;;;;;19.39;46.82;98005.03;5155550;27;20038;-65
2022/09/17 10:19:58;;;;;;;4.68;1.45;;;;;;;19.40;46.78;98028.13;5153940;27;20431;-67
2022/09/17 10:22:33;;;;;;;3.90;1.85;;;;;;;19.42;47.04;98034.06;5155581;27;20035;-66
2022/09/17 10:25:01;;;;;;;6.07;2.72;;;;;;;19.44;46.62;98011.38;5155374;27;20465;-70
2022/09/17 10:27:27;;;;;;;3.75;1.65;;;;;;;19.43;46.46;98015.09;5155205;27;20041;-69
2022/09/17 10:30:08;;;;;;;6.25;1.80;;;;;;;19.44;46.51;98011.38;5154001;27;20047;-67
2022/09/17 10:32:33;;;;;;;4.55;1.75;;;;;;;19.41;46.69;98011.81;5153280;27;20039;-67
2022/09/17 10:35:24;;;;;;;9.30;1.95;;;;;;;19.44;46.58;98023.94;5154450;27;20499;-66
2022/09/17 10:37:51;;;;;;;4.93;2.17;;;;;;;19.43;46.71;98015.09;5154864;27;20065;-65
2022/09/17 10:40:17;;;;;;;6.13;2.50;;;;;;;19.46;46.81;98016.50;5154810;27;20026;-68
2022/09/17 10:42:46;;;;;;;5.80;2.05;;;;;;;19.47;46.68;98027.06;5154707;27;20087;-67
2022/09/17 10:45:29;;;;;;;4.55;2.38;;;;;;;19.48;47.07;98042.06;5154737;27;20035;-66
2022/09/17 10:47:56;;;;;;;4.65;2.63;;;;;;;19.49;47.47;98038.34;5154540;27;20408;-68
2022/09/17 10:50:27;;;;;;;5.95;3.10;;;;;;;19.49;48.08;98053.66;5153998;27;20034;-69
2022/09/17 10:53:00;;;;;;;4.68;2.38;;;;;;;19.48;48.03;98058.16;5154482;27;20063;-67
2022/09/17 10:55:34;;;;;;;5.50;2.70;;;;;;;19.49;48.24;98067.88;5154562;27;20035;-67
2022/09/17 10:58:10;;;;;;;7.85;3.40;;;;;;;19.50;48.72;98057.97;5153579;27;20058;-66
2022/09/17 11:00:38;;;;;;;5.50;2.42;;;;;;;19.53;48.59;98049.50;5154330;27;20033;-66
2022/09/17 11:03:46;;;;;;;3.35;1.58;;;;;;;19.50;48.71;98045.38;5154208;27;20473;-68
2022/09/17 11:06:56;;;;;;;5.50;2.28;;;;;;;19.47;48.95;98050.34;5154276;27;20086;-70
2022/09/17 11:09:59;;;;;;;7.13;2.15;;;;;;;19.46;48.92;98048.69;5132634;27;20154;-68
2022/09/17 11:12:48;;;;;;;3.67;2.22;;;;;;;19.46;48.98;98046.03;5154084;27;20592;-65
2022/09/17 11:15:19;;;;;;;4.85;2.47;;;;;;;19.46;49.12;98051.38;5154704;27;20070;-70
2022/09/17 11:18:06;;;;;;;5.70;1.60;;;;;;;19.44;49.01;98048.09;5154093;27;20053;-69
2022/09/17 11:21:19;;;;;;;3.83;2.00;;;;;;;19.43;49.08;98058.00;5154575;27;20541;-69
2022/09/17 11:24:03;;;;;;;5.93;1.65;;;;;;;19.43;48.96;98046.44;5089299;28;20040;-68
2022/09/17 11:26:54;;;;;;;3.85;1.63;;;;;;;19.45;48.81;98041.69;5091105;28;20109;-68
2022/09/17 11:29:20;;;;;;;;;;;;;;;19.36;48.92;98044.63;5102754;28;20046;-68
2022/09/17 11:32:04;;;;;;;4.22;1.80;;;;;;;19.42;48.83;98048.31;5133633;28;20396;-69
2022/09/17 11:34:44;;;;;;;3.67;1.83;;;;;;;19.45;48.73;98049.75;5145649;27;20038;-65
2022/09/17 11:37:17;;;;;;;3.60;1.60;;;;;;;19.44;48.87;98053.47;5154147;27;20117;-67
2022/09/17 11:39:48;;;;;;;3.78;1.95;;;;;;;19.46;48.61;98059.44;5155616;27;20035;-64
2022/09/17 11:42:20;;;;;;;3.42;1.63;;;;;;;19.48;48.94;98052.81;5137531;27;20034;-67
2022/09/17 11:45:13;;;;;;;5.38;1.63;;;;;;;19.50;48.82;98049.94;5137835;27;20030;-65
2022/09/17 11:47:46;;;;;;;3.13;1.25;;;;;;;19.49;48.64;98043.72;5137612;27;20035;-64
2022/09/17 11:50:18;;;;;;;2.33;1.27;;;;;;;19.51;48.46;98041.66;5156335;27;20038;-65
2022/09/17 11:52:58;;;;;;;2.65;1.30;;;;;;;19.51;48.06;98051.56;5157500;27;20058;-65
2022/09/17 11:55:32;;;;;;;2.30;1.30;;;;;;;19.52;48.01;98045.97;5158263;27;20396;-68